Terminal Aerodrome Forecast
Issued by NWS Blacksburg, VA

Home | Current Version | Previous Version | Text Only | Print | Product List | Glossary On
Versions: 1 2 3 4 5 6 7 8 9 10 11 12 13 14 15 16 17 18 19 20 21 22 23 24 25 26 27 28 29 30
000
FTUS41 KRNK 080520
TAFBLF
TAF
KBLF 080520Z 0806/0906 32006KT P6SM SCT250
     FM080800 26006KT P6SM SCT080 BKN150
     FM081200 17007KT 6SM -SN SCT030 OVC050
     FM081500 18007KT 2SM -SN BR SCT012 OVC020
      TEMPO 0816/0820 1SM -SN BR OVC012
     FM082200 27012G22KT 5SM -SHSN BR OVC015
     FM090200 28015G25KT 1 1/2SM -SHSN BR OVC005=

USA.gov is the U.S. government's official web portal to all federal, state and local government web resources and services.